Time;durP1;ratioP1;P1;durP2;ratioP2;P2;SDS_P1;SDS_P2;PMS_P1;PMS_P2;Temp;Humidity;BMP_temperature;BMP_pressure;BME280_temperature;BME280_humidity;BME280_pressure;Samples;Min_cycle;Max_cycle;Signal;HPM_P1;HPM_P2
2023/11/11 00:02:24;;;;;;;8.43;6.60;;;8.00;99.90;;;;;;5131464;27;20039;-70
2023/11/11 00:04:50;;;;;;;7.03;6.03;;;8.10;99.90;;;;;;5143460;27;20357;-69
2023/11/11 00:07:16;;;;;;;9.77;6.15;;;;;;;;;;5126376;27;20343;-70
2023/11/11 00:09:42;;;;;;;8.30;6.47;;;;;;;;;;5121707;28;20028;-70
2023/11/11 00:12:11;;;;;;;8.10;6.20;;;8.10;99.90;;;;;;5122712;27;20106;-70
2023/11/11 00:14:37;;;;;;;8.38;6.75;;;8.30;99.90;;;;;;5118829;28;20234;-69
2023/11/11 00:17:02;;;;;;;9.80;6.15;;;7.90;99.90;;;;;;5127232;27;20382;-69
2023/11/11 00:19:29;;;;;;;9.38;7.00;;;;;;;;;;5121737;28;20028;-69
2023/11/11 00:21:55;;;;;;;9.68;6.95;;;8.00;99.90;;;;;;5121423;28;20024;-69
2023/11/11 00:24:22;;;;;;;10.63;7.55;;;8.10;99.90;;;;;;5121377;28;20023;-69
2023/11/11 00:26:48;;;;;;;10.27;7.20;;;;;;;;;;5117395;28;20039;-69
2023/11/11 00:29:16;;;;;;;10.90;7.47;;;8.10;99.90;;;;;;5124153;27;20064;-69
2023/11/11 00:31:47;;;;;;;11.38;8.07;;;8.00;99.90;;;;;;5123332;27;20253;-70
2023/11/11 00:34:15;;;;;;;10.85;7.15;;;8.20;99.90;;;;;;5114931;27;20088;-70
2023/11/11 00:36:42;;;;;;;11.03;7.80;;;;;;;;;;5121769;28;20039;-69
2023/11/11 00:39:10;;;;;;;13.38;7.95;;;;;;;;;;5120076;28;20019;-71
2023/11/11 00:41:37;;;;;;;15.50;9.32;;;;;;;;;;5121528;28;20050;-71
2023/11/11 00:44:09;;;;;;;14.73;9.30;;;8.20;99.90;;;;;;5119687;27;20094;-75
2023/11/11 00:46:39;;;;;;;14.23;9.93;;;8.10;99.90;;;;;;5120022;28;20057;-74
2023/11/11 00:49:08;;;;;;;16.05;10.20;;;8.10;99.90;;;;;;5121149;28;20028;-72
2023/11/11 00:51:39;;;;;;;14.60;10.20;;;8.10;99.90;;;;;;5120948;28;20350;-69
2023/11/11 00:54:09;;;;;;;17.92;11.27;;;7.90;99.90;;;;;;5107220;28;20094;-71
2023/11/11 00:56:38;;;;;;;18.15;11.45;;;8.00;99.90;;;;;;5121220;27;20087;-69
2023/11/11 00:59:06;;;;;;;;;;;8.00;99.90;;;;;;5120623;28;20035;-70
2023/11/11 01:01:35;;;;;;;17.27;11.18;;;8.10;99.90;;;;;;5121567;28;20095;-67
2023/11/11 01:04:03;;;;;;;16.65;11.90;;;8.10;99.90;;;;;;5121797;28;20023;-67
2023/11/11 01:06:29;;;;;;;15.52;11.80;;;7.90;99.90;;;;;;5121680;28;20034;-68
2023/11/11 01:08:55;;;;;;;22.65;11.60;;;;;;;;;;5121375;28;20024;-69
2023/11/11 01:11:21;;;;;;;17.20;11.23;;;8.00;99.90;;;;;;5121516;28;20038;-68
2023/11/11 01:13:48;;;;;;;19.23;12.27;;;;;;;;;;5121516;28;20023;-68
2023/11/11 01:16:15;;;;;;;17.90;12.02;;;8.20;99.90;;;;;;5121228;28;20045;-69
2023/11/11 01:18:41;;;;;;;19.35;12.82;;;8.10;99.90;;;;;;5121489;28;20200;-68
2023/11/11 01:21:07;;;;;;;18.30;11.93;;;;;;;;;;5121076;28;20030;-68
2023/11/11 01:23:33;;;;;;;17.40;12.40;;;8.20;99.90;;;;;;5121076;28;20019;-69
2023/11/11 01:26:02;;;;;;;22.52;13.00;;;8.10;99.90;;;;;;5121277;28;20684;-68
2023/11/11 01:28:29;;;;;;;;;;;8.10;99.90;;;;;;5121762;28;20364;-68
2023/11/11 01:30:55;;;;;;;22.60;11.95;;;8.00;99.90;;;;;;5121230;28;20025;-69
2023/11/11 01:33:21;;;;;;;22.33;12.63;;;8.60;99.90;;;;;;5121219;28;20327;-68
2023/11/11 01:35:50;;;;;;;28.85;14.45;;;;;;;;;;5121124;28;20408;-68
2023/11/11 01:38:19;;;;;;;31.35;13.35;;;7.90;99.90;;;;;;5121073;28;20020;-69
2023/11/11 01:40:45;;;;;;;100.72;15.85;;;7.90;99.90;;;;;;5120780;28;20107;-69
2023/11/11 01:43:14;;;;;;;61.53;14.70;;;;;;;;;;5120983;28;20031;-68
2023/11/11 01:45:43;;;;;;;;;;;8.00;99.90;;;;;;5121085;28;20012;-68
2023/11/11 01:48:14;;;;;;;115.38;13.02;;;8.00;99.90;;;;;;5121188;28;19916;-68
2023/11/11 01:50:43;;;;;;;378.10;17.17;;;8.00;99.90;;;;;;5120846;28;20089;-68
2023/11/11 01:53:11;;;;;;;279.23;16.05;;;7.70;99.90;;;;;;5121090;28;20052;-69
2023/11/11 01:55:38;;;;;;;180.57;14.55;;;8.00;99.90;;;;;;5120805;28;20086;-69
2023/11/11 01:58:04;;;;;;;190.25;15.35;;;8.50;99.90;;;;;;5121027;28;20024;-70
2023/11/11 02:00:38;;;;;;;148.32;14.20;;;7.80;99.90;;;;;;5119402;28;20099;-69
2023/11/11 02:03:04;;;;;;;193.80;15.93;;;8.20;99.90;;;;;;5120956;28;20027;-69
2023/11/11 02:05:30;;;;;;;130.07;13.73;;;;;;;;;;5120577;28;20030;-69
2023/11/11 02:07:58;;;;;;;310.65;16.23;;;7.90;99.90;;;;;;5120411;28;20027;-69
2023/11/11 02:10:24;;;;;;;193.52;15.70;;;7.90;99.90;;;;;;5120432;28;20074;-70
2023/11/11 02:12:51;;;;;;;209.93;15.48;;;7.90;99.90;;;;;;5120434;28;20020;-70
2023/11/11 02:15:17;;;;;;;230.98;16.02;;;8.00;99.90;;;;;;5120414;28;20027;-69
2023/11/11 02:17:44;;;;;;;133.40;14.50;;;;;;;;;;5120347;28;20327;-70
2023/11/11 02:20:12;;;;;;;293.50;16.63;;;7.80;99.90;;;;;;5120168;28;20027;-71
2023/11/11 02:22:41;;;;;;;98.05;14.68;;;8.10;99.90;;;;;;5120350;28;20020;-70
2023/11/11 02:25:08;;;;;;;81.20;14.57;;;7.90;99.90;;;;;;5120665;28;20030;-69
2023/11/11 02:27:35;;;;;;;44.38;13.55;;;7.90;99.90;;;;;;5124659;28;20023;-73
2023/11/11 02:30:04;;;;;;;40.22;14.32;;;7.90;99.90;;;;;;5123178;28;20043;-71
2023/11/11 02:32:32;;;;;;;29.95;13.90;;;7.80;99.90;;;;;;5123098;28;20200;-69
2023/11/11 02:34:59;;;;;;;26.77;12.85;;;7.90;99.90;;;;;;5124429;28;20028;-81
2023/11/11 02:37:25;;;;;;;27.40;14.35;;;;;;;;;;5124379;28;20331;-70
2023/11/11 02:39:51;;;;;;;34.83;14.23;;;;;;;;;;5124220;28;20346;-70
2023/11/11 02:42:16;;;;;;;27.70;14.18;;;7.90;99.90;;;;;;5124220;28;20095;-70
2023/11/11 02:44:43;;;;;;;30.98;14.30;;;;;;;;;;5124564;28;20019;-75
2023/11/11 02:47:09;;;;;;;33.55;13.02;;;8.00;99.90;;;;;;5124342;28;20019;-69
2023/11/11 02:49:34;;;;;;;29.40;13.32;;;8.10;99.90;;;;;;5124179;28;20258;-69
2023/11/11 02:52:00;;;;;;;28.65;12.75;;;7.80;99.90;;;;;;5124301;28;20367;-70
2023/11/11 02:54:26;;;;;;;39.05;14.23;;;;;;;;;;5124182;28;20031;-70
2023/11/11 02:56:51;;;;;;;50.58;15.00;;;7.90;99.90;;;;;;5124144;28;20031;-70
2023/11/11 02:59:17;;;;;;;45.58;14.35;;;7.80;99.90;;;;;;5123984;28;20028;-69
2023/11/11 03:01:44;;;;;;;88.60;15.15;;;8.10;99.90;;;;;;5123954;28;20107;-70
2023/11/11 03:04:11;;;;;;;106.20;15.10;;;;;;;;;;5123839;27;20024;-69
2023/11/11 03:06:42;;;;;;;33.08;14.63;;;8.00;99.90;;;;;;5123747;28;20019;-70
2023/11/11 03:09:09;;;;;;;33.22;14.88;;;8.00;99.90;;;;;;5122431;28;20043;-70
2023/11/11 03:11:38;;;;;;;29.85;14.02;;;7.80;99.90;;;;;;5123735;28;20023;-70
2023/11/11 03:14:04;;;;;;;43.83;14.77;;;8.00;99.90;;;;;;5122416;28;20023;-70
2023/11/11 03:16:38;;;;;;;47.33;14.50;;;8.30;99.90;;;;;;5123667;28;20038;-70
2023/11/11 03:19:06;;;;;;;75.45;16.13;;;7.80;99.90;;;;;;5123649;27;20052;-68
2023/11/11 03:21:32;;;;;;;28.10;15.35;;;7.50;99.90;;;;;;5122474;28;20039;-69
2023/11/11 03:23:58;;;;;;;75.90;14.50;;;;;;;;;;5123561;28;20016;-69
2023/11/11 03:26:24;;;;;;;105.25;14.88;;;;;;;;;;5123372;28;20023;-69
2023/11/11 03:28:51;;;;;;;273.77;18.38;;;8.00;99.90;;;;;;5123319;28;20125;-69
2023/11/11 03:31:20;;;;;;;66.88;16.23;;;8.20;99.90;;;;;;5119658;28;20132;-69
2023/11/11 03:33:48;;;;;;;105.53;17.98;;;7.80;99.90;;;;;;5103094;28;20048;-68
2023/11/11 03:36:14;;;;;;;147.50;16.45;;;8.10;99.90;;;;;;5102705;28;20039;-69
2023/11/11 03:38:40;;;;;;;149.45;16.65;;;8.30;99.90;;;;;;5102200;28;20021;-69
2023/11/11 03:41:07;;;;;;;48.72;15.23;;;8.00;99.90;;;;;;5111712;28;20196;-68
2023/11/11 03:43:33;;;;;;;71.05;14.18;;;;;;;;;;5123300;28;20086;-67
2023/11/11 03:45:59;;;;;;;113.95;16.00;;;;;;;;;;5123097;28;20043;-67
2023/11/11 03:48:27;;;;;;;280.73;19.23;;;7.90;99.90;;;;;;5123027;28;20327;-68
2023/11/11 03:50:53;;;;;;;470.58;22.10;;;8.30;99.90;;;;;;5122845;28;20127;-67
2023/11/11 03:53:19;;;;;;;344.15;20.20;;;;;;;;;;5122848;28;20374;-68
2023/11/11 03:55:45;;;;;;;273.17;19.92;;;;;;;;;;5115214;28;20040;-68
2023/11/11 03:58:10;;;;;;;285.02;19.15;;;7.70;99.90;;;;;;5102408;28;20020;-68
2023/11/11 04:00:36;;;;;;;337.85;19.90;;;;;;;;;;5102610;28;20377;-68
2023/11/11 04:03:03;;;;;;;445.63;21.63;;;;;;;;;;5102382;28;20312;-68
2023/11/11 04:05:28;;;;;;;156.65;17.73;;;8.30;99.90;;;;;;5102311;28;20024;-68
2023/11/11 04:07:54;;;;;;;146.90;17.20;;;;;;;;;;5102527;28;20039;-68
2023/11/11 04:10:20;;;;;;;384.75;21.13;;;7.70;99.90;;;;;;5102453;28;20016;-69
2023/11/11 04:12:46;;;;;;;190.18;17.50;;;;;;;;;;5102237;28;20276;-69
2023/11/11 04:15:12;;;;;;;442.67;22.10;;;7.50;99.90;;;;;;5102478;28;20073;-68
2023/11/11 04:17:42;;;;;;;331.25;21.08;;;7.70;99.90;;;;;;5102242;28;20032;-67
2023/11/11 04:20:11;;;;;;;75.35;16.77;;;7.70;99.90;;;;;;5102167;28;20375;-70
2023/11/11 04:22:37;;;;;;;138.68;14.18;;;;;;;;;;5100756;28;20036;-70
2023/11/11 04:25:05;;;;;;;68.80;15.95;;;7.70;99.90;;;;;;5103036;28;20020;-69
2023/11/11 04:27:32;;;;;;;64.55;15.02;;;7.80;99.90;;;;;;5122591;28;20019;-69
2023/11/11 04:29:58;;;;;;;85.63;15.23;;;7.60;99.90;;;;;;5121034;28;20043;-70
2023/11/11 04:32:25;;;;;;;37.72;14.05;;;;;;;;;;5112883;28;20069;-69
2023/11/11 04:34:50;;;;;;;42.20;13.77;;;7.80;99.90;;;;;;5109899;28;20035;-69
2023/11/11 04:37:19;;;;;;;30.08;13.48;;;8.30;99.90;;;;;;5121996;28;20016;-69
2023/11/11 04:39:45;;;;;;;28.93;13.47;;;7.90;99.90;;;;;;5121940;28;20064;-69
2023/11/11 04:42:13;;;;;;;22.42;11.50;;;8.00;99.90;;;;;;5122035;28;20043;-70
2023/11/11 04:44:39;;;;;;;20.70;11.68;;;;;;;;;;5121942;28;20315;-69
2023/11/11 04:47:07;;;;;;;17.98;10.80;;;;;;;;;;5122087;28;20027;-69
2023/11/11 04:49:33;;;;;;;22.85;11.18;;;7.70;99.90;;;;;;5121382;28;20055;-70
2023/11/11 04:51:59;;;;;;;21.08;11.60;;;;;;;;;;5122005;28;20322;-70
2023/11/11 04:54:26;;;;;;;20.00;11.20;;;;;;;;;;5121946;28;20023;-69
2023/11/11 04:56:54;;;;;;;23.27;12.55;;;7.70;99.90;;;;;;5121979;28;20015;-69
2023/11/11 04:59:19;;;;;;;23.27;12.63;;;7.90;99.90;;;;;;5121839;28;20046;-70
2023/11/11 05:01:45;;;;;;;26.27;12.48;;;;;;;;;;5121720;28;20035;-70
2023/11/11 05:04:12;;;;;;;25.48;12.07;;;;;;;;;;5103984;28;20016;-69
2023/11/11 05:06:38;;;;;;;30.58;12.50;;;7.60;99.90;;;;;;5101207;28;20035;-70
2023/11/11 05:09:04;;;;;;;32.90;12.13;;;;;;;;;;5101191;28;20055;-70
2023/11/11 05:11:31;;;;;;;29.05;13.82;;;7.80;99.90;;;;;;5101192;28;20094;-70
2023/11/11 05:13:59;;;;;;;26.20;12.00;;;7.80;99.90;;;;;;5101059;28;20043;-70
2023/11/11 05:16:38;;;;;;;27.17;12.07;;;;;;;;;;5101348;28;20038;-71
2023/11/11 05:19:04;;;;;;;24.30;11.85;;;;;;;;;;5101141;28;20312;-71
2023/11/11 05:21:30;;;;;;;28.45;11.00;;;7.70;99.90;;;;;;5100864;28;20063;-71
2023/11/11 05:23:56;;;;;;;26.25;11.68;;;7.90;99.90;;;;;;5120529;28;20382;-71
2023/11/11 05:26:22;;;;;;;34.47;13.15;;;;;;;;;;5121725;28;20063;-75
2023/11/11 05:28:48;;;;;;;29.95;13.13;;;;;;;;;;5123288;28;20027;-73
2023/11/11 05:31:13;;;;;;;25.77;13.68;;;8.30;99.90;;;;;;5120432;28;20029;-70
2023/11/11 05:33:39;;;;;;;44.55;12.43;;;;;;;;;;5119020;28;20091;-70
2023/11/11 05:36:09;;;;;;;36.10;15.10;;;7.60;99.90;;;;;;5120072;28;20342;-70
2023/11/11 05:38:34;;;;;;;;;;;7.80;99.90;;;;;;5120547;28;20090;-70
2023/11/11 05:41:00;;;;;;;184.95;16.17;;;7.70;99.90;;;;;;5120188;28;19927;-70
2023/11/11 05:43:26;;;;;;;168.32;15.75;;;;;;;;;;5119982;28;20027;-69
2023/11/11 05:45:52;;;;;;;113.43;16.90;;;;;;;;;;5120396;28;20128;-70
2023/11/11 05:48:18;;;;;;;362.20;19.38;;;7.60;99.90;;;;;;5119201;28;20008;-71
2023/11/11 05:50:46;;;;;;;545.20;23.88;;;7.70;99.90;;;;;;5120685;28;20115;-70
2023/11/11 05:53:14;;;;;;;182.10;19.80;;;;;;;;;;5120697;28;20028;-71
2023/11/11 05:55:40;;;;;;;315.10;21.33;;;;;;;;;;5120732;28;20320;-74
2023/11/11 05:58:05;;;;;;;335.15;19.52;;;7.60;99.90;;;;;;5120716;28;20090;-69
2023/11/11 06:00:31;;;;;;;438.70;23.67;;;;;;;;;;5119973;28;20027;-69
2023/11/11 06:02:57;;;;;;;511.80;26.67;;;;;;;;;;5120870;28;20046;-69
2023/11/11 06:05:23;;;;;;;372.90;23.65;;;7.70;99.90;;;;;;5120826;28;20182;-74
2023/11/11 06:07:49;;;;;;;508.48;27.10;;;;;;;;;;5122309;28;20043;-71
2023/11/11 06:10:17;;;;;;;128.30;21.35;;;;;;;;;;5111598;28;20024;-78
2023/11/11 06:12:43;;;;;;;107.72;20.63;;;;;;;;;;5104345;28;20022;-76
2023/11/11 06:15:09;;;;;;;73.68;19.27;;;;;;;;;;5102310;28;20228;-75
2023/11/11 06:17:36;;;;;;;66.18;17.48;;;7.40;99.90;;;;;;5100926;28;20024;-71
2023/11/11 06:20:05;;;;;;;65.43;19.48;;;7.60;99.90;;;;;;5100671;28;20024;-75
2023/11/11 06:22:32;;;;;;;60.15;20.63;;;7.60;99.90;;;;;;5100157;28;20254;-72
2023/11/11 06:24:58;;;;;;;69.45;19.15;;;7.70;99.90;;;;;;5098927;28;20024;-72
2023/11/11 06:27:24;;;;;;;90.22;20.10;;;7.60;99.90;;;;;;5099842;28;20124;-72
2023/11/11 06:29:50;;;;;;;173.10;21.48;;;;;;;;;;5102344;28;20322;-71
2023/11/11 06:32:16;;;;;;;194.05;21.40;;;7.70;99.90;;;;;;5099164;28;20030;-73
2023/11/11 06:34:42;;;;;;;149.43;21.85;;;;;;;;;;5099244;28;20262;-73
2023/11/11 06:37:08;;;;;;;55.42;18.65;;;;;;;;;;5099918;28;20590;-72
2023/11/11 06:39:34;;;;;;;193.98;21.42;;;;;;;;;;5099406;28;20250;-72
2023/11/11 06:42:00;;;;;;;103.57;20.85;;;;;;;;;;5109771;28;20066;-74
2023/11/11 06:44:25;;;;;;;151.95;21.95;;;7.70;99.90;;;;;;5118975;28;20084;-72
2023/11/11 06:46:52;;;;;;;137.05;21.00;;;;;;;;;;5119064;28;20215;-72
2023/11/11 06:49:18;;;;;;;248.02;23.40;;;;;;;;;;5118534;28;20058;-73
2023/11/11 06:51:44;;;;;;;142.45;18.90;;;;;;;;;;5118678;28;20279;-72
2023/11/11 06:54:10;;;;;;;86.70;19.17;;;;;;;;;;5117801;28;20028;-72
2023/11/11 06:56:36;;;;;;;63.35;19.35;;;7.60;99.90;;;;;;5119235;28;20016;-72
2023/11/11 06:59:02;;;;;;;53.88;20.05;;;;;;;;;;5119756;28;20231;-73
2023/11/11 07:01:29;;;;;;;47.38;19.40;;;7.70;99.90;;;;;;5120043;28;20031;-72
2023/11/11 07:03:57;;;;;;;49.50;18.08;;;7.70;99.90;;;;;;5120006;28;20042;-73
2023/11/11 07:06:23;;;;;;;41.13;18.00;;;;;;;;;;5119733;28;20341;-72
2023/11/11 07:08:50;;;;;;;39.08;18.00;;;7.60;99.90;;;;;;5119943;28;20024;-73
2023/11/11 07:11:17;;;;;;;40.42;17.45;;;7.50;99.90;;;;;;5120802;28;20035;-73
2023/11/11 07:13:46;;;;;;;38.60;15.57;;;;;;;;;;5123437;28;20015;-72
2023/11/11 07:16:16;;;;;;;42.15;17.98;;;7.60;99.90;;;;;;5123713;28;20023;-73
2023/11/11 07:18:43;;;;;;;45.25;18.95;;;;;;;;;;5123834;28;20024;-73
2023/11/11 07:21:18;;;;;;;39.67;19.45;;;7.60;99.90;;;;;;5123667;28;20035;-73
2023/11/11 07:23:44;;;;;;;43.03;18.73;;;;;;;;;;5123675;28;20087;-73
2023/11/11 07:26:11;;;;;;;42.88;17.75;;;7.80;99.90;;;;;;5123200;27;20035;-73
2023/11/11 07:28:38;;;;;;;45.90;20.00;;;7.90;99.90;;;;;;5116125;28;20055;-72
2023/11/11 07:31:03;;;;;;;45.63;18.60;;;7.70;99.90;;;;;;5110996;28;20028;-73
2023/11/11 07:33:30;;;;;;;51.47;19.25;;;;;;;;;;5123787;28;20015;-71
2023/11/11 07:35:56;;;;;;;38.88;17.05;;;7.70;99.90;;;;;;5117274;28;20087;-72
2023/11/11 07:38:21;;;;;;;39.05;18.83;;;8.20;99.90;;;;;;5105569;28;20327;-72
2023/11/11 07:40:47;;;;;;;44.97;18.13;;;7.80;99.90;;;;;;5102932;28;20024;-72
2023/11/11 07:43:13;;;;;;;36.38;16.80;;;;;;;;;;5103093;28;20086;-72
2023/11/11 07:45:39;;;;;;;34.50;17.27;;;7.80;99.90;;;;;;5103060;28;20040;-72
2023/11/11 07:48:05;;;;;;;37.10;17.33;;;;;;;;;;5101535;28;20459;-74
2023/11/11 07:50:31;;;;;;;36.97;18.42;;;8.20;99.90;;;;;;5102637;28;20081;-71
2023/11/11 07:52:57;;;;;;;30.95;17.50;;;;;;;;;;5130991;27;20035;-71
2023/11/11 07:55:23;;;;;;;29.48;16.88;;;8.10;99.90;;;;;;5143512;27;20212;-70
2023/11/11 07:57:49;;;;;;;29.38;15.93;;;;;;;;;;5143452;27;20023;-70
2023/11/11 08:00:18;;;;;;;29.88;16.10;;;;;;;;;;5143594;27;20091;-71
2023/11/11 08:02:47;;;;;;;35.22;17.70;;;8.00;99.90;;;;;;5143393;27;20242;-71
2023/11/11 08:05:13;;;;;;;;;;;8.20;99.90;;;;;;5143896;27;20011;-71
2023/11/11 08:07:39;;;;;;;29.60;15.35;;;;;;;;;;5143095;27;19918;-70
2023/11/11 08:10:06;;;;;;;31.40;16.63;;;8.10;99.90;;;;;;5143360;27;20072;-71
2023/11/11 08:12:32;;;;;;;31.55;16.95;;;;;;;;;;5143634;27;20015;-72
2023/11/11 08:15:00;;;;;;;33.70;17.15;;;8.40;99.90;;;;;;5143401;27;20303;-71
2023/11/11 08:17:26;;;;;;;31.55;17.20;;;8.30;99.90;;;;;;5143355;27;20342;-71
2023/11/11 08:19:52;;;;;;;28.13;15.02;;;;;;;;;;5143591;27;20027;-71
2023/11/11 08:22:18;;;;;;;25.27;15.32;;;;;;;;;;5143376;27;20042;-71
2023/11/11 08:24:43;;;;;;;29.15;16.38;;;8.40;99.90;;;;;;5142364;27;20015;-70
2023/11/11 08:27:11;;;;;;;23.98;14.93;;;;;;;;;;5142976;27;20103;-71
2023/11/11 08:29:36;;;;;;;31.33;16.40;;;8.10;99.90;;;;;;5143173;27;20015;-71
2023/11/11 08:32:02;;;;;;;27.08;16.10;;;;;;;;;;5136811;27;20303;-71
2023/11/11 08:34:31;;;;;;;23.45;15.40;;;;;;;;;;5101877;28;20034;-71
2023/11/11 08:36:57;;;;;;;21.75;13.75;;;8.20;99.90;;;;;;5118294;28;20083;-71
2023/11/11 08:39:24;;;;;;;28.15;15.18;;;8.20;99.90;;;;;;5122136;28;20073;-71
2023/11/11 08:41:51;;;;;;;24.08;15.20;;;;;;;;;;5115352;28;20091;-71
2023/11/11 08:44:17;;;;;;;21.65;13.57;;;8.40;99.90;;;;;;5101786;28;20067;-70
2023/11/11 08:46:43;;;;;;;24.20;14.52;;;8.10;99.90;;;;;;5101925;28;20254;-71
2023/11/11 08:49:09;;;;;;;25.77;15.27;;;8.30;99.90;;;;;;5101435;28;20160;-71
2023/11/11 08:51:35;;;;;;;21.88;14.32;;;;;;;;;;5134403;27;20043;-71
2023/11/11 08:54:01;;;;;;;26.20;14.38;;;;;;;;;;5112488;28;20031;-71
2023/11/11 08:56:30;;;;;;;27.55;14.70;;;8.20;99.90;;;;;;5101706;28;20028;-70
2023/11/11 08:58:56;;;;;;;24.10;13.82;;;;;;;;;;5101641;28;20027;-71
2023/11/11 09:01:22;;;;;;;21.98;14.60;;;8.20;99.90;;;;;;5101292;28;20063;-70
2023/11/11 09:03:49;;;;;;;24.00;13.85;;;8.10;99.90;;;;;;5101346;28;20253;-69
2023/11/11 09:06:16;;;;;;;22.90;13.50;;;;;;;;;;5101178;28;20031;-69
2023/11/11 09:08:43;;;;;;;20.52;11.98;;;8.50;99.90;;;;;;5100321;28;20027;-69
2023/11/11 09:11:09;;;;;;;22.88;12.25;;;;;;;;;;5101365;28;20089;-68
2023/11/11 09:13:35;;;;;;;22.25;12.75;;;;;;;;;;5102571;28;20023;-72
2023/11/11 09:16:02;;;;;;;21.23;12.48;;;8.30;99.90;;;;;;5102565;28;20028;-67
2023/11/11 09:18:29;;;;;;;22.33;13.88;;;;;;;;;;5101732;28;20391;-68
2023/11/11 09:20:55;;;;;;;23.38;13.68;;;;;;;;;;5100498;28;20028;-68
2023/11/11 09:23:22;;;;;;;20.92;14.55;;;;;;;;;;5100729;28;20362;-68
2023/11/11 09:25:47;;;;;;;24.25;13.30;;;8.30;99.90;;;;;;5100443;28;20028;-69
2023/11/11 09:28:14;;;;;;;21.75;13.85;;;;;;;;;;5100064;28;20023;-68
2023/11/11 09:30:40;;;;;;;24.08;13.63;;;8.30;99.90;;;;;;5100065;28;20023;-68
2023/11/11 09:33:06;;;;;;;24.27;14.82;;;;;;;;;;5099782;28;20024;-68
2023/11/11 09:35:32;;;;;;;25.40;14.40;;;8.40;99.90;;;;;;5099998;28;20023;-68
2023/11/11 09:37:58;;;;;;;23.58;15.50;;;8.30;99.90;;;;;;5100927;28;20034;-68
2023/11/11 09:40:25;;;;;;;33.72;17.02;;;;;;;;;;5100731;28;20100;-68
2023/11/11 09:42:50;;;;;;;28.52;16.63;;;8.40;99.90;;;;;;5100591;28;20315;-68
2023/11/11 09:45:16;;;;;;;33.72;18.27;;;;;;;;;;5100592;28;20081;-67
2023/11/11 09:47:44;;;;;;;32.40;17.13;;;8.50;99.90;;;;;;5100905;28;20051;-68
2023/11/11 09:50:10;;;;;;;36.97;19.00;;;;;;;;;;5100514;28;20047;-67
2023/11/11 09:52:38;;;;;;;33.55;19.33;;;8.60;99.90;;;;;;5100672;28;20008;-67
2023/11/11 09:55:05;;;;;;;35.08;19.38;;;8.40;99.90;;;;;;5100543;28;20226;-68
2023/11/11 09:57:32;;;;;;;36.58;18.35;;;8.40;99.90;;;;;;5100422;28;20018;-67
2023/11/11 09:59:59;;;;;;;37.05;19.50;;;8.20;99.90;;;;;;5100311;28;20380;-67
2023/11/11 10:02:26;;;;;;;33.92;20.00;;;;;;;;;;5100148;28;20032;-67
2023/11/11 10:04:52;;;;;;;34.25;19.67;;;;;;;;;;5100530;28;20043;-67
2023/11/11 10:07:21;;;;;;;32.50;18.90;;;8.60;99.90;;;;;;5100447;28;20091;-67
2023/11/11 10:09:48;;;;;;;38.15;21.08;;;8.50;99.90;;;;;;5100252;28;20572;-66
2023/11/11 10:12:14;;;;;;;36.47;20.48;;;8.40;99.90;;;;;;5100455;28;20032;-69
2023/11/11 10:14:40;;;;;;;34.25;19.20;;;8.50;99.90;;;;;;5100397;28;20212;-67
2023/11/11 10:17:11;;;;;;;36.67;20.40;;;8.40;99.90;;;;;;5100129;28;20024;-69
2023/11/11 10:19:42;;;;;;;38.95;21.40;;;8.40;99.90;;;;;;5100034;28;20306;-69
2023/11/11 10:22:09;;;;;;;37.05;21.75;;;;;;;;;;5100002;28;20343;-67
2023/11/11 10:24:35;;;;;;;38.60;21.42;;;8.40;99.90;;;;;;5100056;28;20016;-69
2023/11/11 10:27:01;;;;;;;36.50;20.15;;;8.60;99.90;;;;;;5100232;28;20035;-70
2023/11/11 10:29:27;;;;;;;31.88;20.20;;;;;;;;;;5100050;28;20028;-67
2023/11/11 10:31:53;;;;;;;39.10;21.20;;;;;;;;;;5100112;28;20048;-70
2023/11/11 10:34:19;;;;;;;34.38;19.88;;;;;;;;;;5099841;28;20328;-70
2023/11/11 10:36:46;;;;;;;35.63;21.00;;;8.50;99.90;;;;;;5099986;28;20037;-70
2023/11/11 10:39:12;;;;;;;36.67;22.23;;;8.80;99.90;;;;;;5099917;28;20020;-70
2023/11/11 10:41:43;;;;;;;33.20;19.65;;;8.30;99.90;;;;;;5099956;28;20051;-67
2023/11/11 10:44:09;;;;;;;34.08;20.85;;;8.50;99.90;;;;;;5099856;28;20031;-68
2023/11/11 10:46:36;;;;;;;39.85;21.38;;;8.70;99.90;;;;;;5100817;28;20024;-67
2023/11/11 10:49:08;;;;;;;38.40;21.00;;;8.70;99.90;;;;;;5108035;27;20020;-69
2023/11/11 10:51:34;;;;;;;34.53;21.15;;;8.90;99.90;;;;;;5144933;27;20054;-68
2023/11/11 10:54:03;;;;;;;33.90;19.85;;;8.50;99.90;;;;;;5144685;27;20072;-70
2023/11/11 10:56:29;;;;;;;31.23;16.50;;;;;;;;;;5144814;27;20023;-68
2023/11/11 10:58:56;;;;;;;31.70;17.45;;;;;;;;;;5144846;27;20323;-71
2023/11/11 11:01:22;;;;;;;29.73;16.73;;;8.50;99.90;;;;;;5144679;27;20023;-71
2023/11/11 11:03:48;;;;;;;30.48;16.77;;;8.60;99.90;;;;;;5144673;27;20031;-70
2023/11/11 11:06:33;;;;;;;27.98;16.73;;;8.40;99.90;;;;;;5143411;27;20254;-72
2023/11/11 11:09:27;;;;;;;18.63;11.38;;;8.50;99.90;;;;;;5144603;27;20025;-70
2023/11/11 11:12:26;;;;;;;16.50;11.38;;;8.10;99.90;;;;;;5144649;27;20015;-70
2023/11/11 11:14:55;;;;;;;16.10;10.18;;;8.20;99.90;;;;;;5144808;27;20027;-70
2023/11/11 11:17:38;;;;;;;23.03;11.97;;;8.20;99.90;;;;;;5144747;27;20015;-71
2023/11/11 11:20:12;;;;;;;20.42;11.00;;;8.20;99.90;;;;;;5144399;27;20019;-70
2023/11/11 11:22:40;;;;;;;20.60;12.23;;;8.20;99.90;;;;;;5144160;27;20046;-75
2023/11/11 11:25:33;;;;;;;20.17;11.40;;;8.40;99.90;;;;;;5144206;27;20034;-71
2023/11/11 11:28:14;;;;;;;18.92;11.35;;;8.30;99.90;;;;;;5144136;27;20091;-70
2023/11/11 11:30:40;;;;;;;17.13;9.55;;;;;;;;;;5144138;27;20031;-68
2023/11/11 11:33:06;;;;;;;20.15;10.63;;;8.30;99.90;;;;;;5144056;27;20082;-67
2023/11/11 11:35:35;;;;;;;16.38;9.75;;;8.30;99.90;;;;;;5144024;27;20023;-70
2023/11/11 11:38:05;;;;;;;12.18;7.60;;;8.20;99.90;;;;;;5144205;27;20060;-69
2023/11/11 11:40:37;;;;;;;14.55;8.57;;;8.30;99.90;;;;;;5144189;27;20019;-70
2023/11/11 11:43:12;;;;;;;24.20;8.50;;;8.30;99.90;;;;;;5144538;27;20057;-69
2023/11/11 11:45:38;;;;;;;12.30;7.00;;;8.20;99.90;;;;;;5144440;27;20030;-70
2023/11/11 11:48:07;;;;;;;13.82;7.43;;;8.10;99.90;;;;;;5144799;27;20026;-73
2023/11/11 11:50:36;;;;;;;13.75;7.70;;;8.20;99.90;;;;;;5144727;27;20062;-71
2023/11/11 11:53:03;;;;;;;17.63;8.70;;;8.20;99.90;;;;;;5145196;27;20027;-74
2023/11/11 11:55:37;;;;;;;13.70;8.80;;;8.10;99.90;;;;;;5144955;27;20021;-73
2023/11/11 11:58:03;;;;;;;16.30;8.63;;;8.10;99.90;;;;;;5144280;27;20014;-72
2023/11/11 12:00:30;;;;;;;23.40;10.82;;;8.40;99.90;;;;;;5144959;27;20077;-69
2023/11/11 12:02:57;;;;;;;22.15;12.95;;;8.90;99.90;;;;;;5144575;27;20334;-72
2023/11/11 12:05:24;;;;;;;21.23;11.68;;;8.30;99.90;;;;;;5144559;27;20588;-71
2023/11/11 12:07:51;;;;;;;23.38;12.43;;;8.40;99.90;;;;;;5144475;27;20037;-69
2023/11/11 12:10:18;;;;;;;20.00;11.68;;;8.50;99.90;;;;;;5144314;27;20011;-74
2023/11/11 12:12:44;;;;;;;23.42;13.20;;;8.30;99.90;;;;;;5143763;27;20218;-72
2023/11/11 12:15:15;;;;;;;28.95;13.45;;;8.20;99.90;;;;;;5143277;27;20090;-73
2023/11/11 12:17:48;;;;;;;26.75;13.27;;;8.40;99.90;;;;;;5143280;27;20023;-73
2023/11/11 12:20:14;;;;;;;25.15;13.90;;;8.40;99.90;;;;;;5143157;27;20107;-72
2023/11/11 12:22:47;;;;;;;30.25;14.50;;;8.50;99.90;;;;;;5143020;27;20062;-72
2023/11/11 12:25:13;;;;;;;24.20;13.90;;;8.40;99.90;;;;;;5143224;27;20083;-73
2023/11/11 12:27:42;;;;;;;25.95;13.50;;;8.50;99.90;;;;;;5143553;27;20030;-73
2023/11/11 12:30:20;;;;;;;32.25;15.10;;;8.70;99.90;;;;;;5143085;27;20015;-73
2023/11/11 12:33:06;;;;;;;23.67;13.68;;;8.50;99.90;;;;;;5131189;27;20032;-73
2023/11/11 12:35:32;;;;;;;25.85;14.00;;;8.60;99.90;;;;;;5109431;28;20030;-73
2023/11/11 12:37:58;;;;;;;31.52;14.98;;;8.60;99.90;;;;;;5101962;28;20061;-71
2023/11/11 12:40:34;;;;;;;27.48;13.70;;;8.60;99.90;;;;;;5101734;28;20044;-72
2023/11/11 12:43:00;;;;;;;25.45;15.02;;;;;;;;;;5101763;28;20043;-71
2023/11/11 12:45:27;;;;;;;26.30;14.48;;;8.50;99.90;;;;;;5102119;28;20016;-72
2023/11/11 12:47:53;;;;;;;29.77;15.90;;;9.00;99.90;;;;;;5101840;28;20049;-71
2023/11/11 12:50:31;;;;;;;26.63;15.77;;;8.70;99.90;;;;;;5100020;28;20059;-71
2023/11/11 12:53:04;;;;;;;28.02;14.75;;;8.90;99.90;;;;;;5101558;28;20047;-72
2023/11/11 12:55:31;;;;;;;28.30;15.80;;;8.80;99.90;;;;;;5101464;28;20051;-70
2023/11/11 12:58:22;;;;;;;28.80;14.40;;;8.80;99.90;;;;;;5101670;28;20048;-72
2023/11/11 13:00:49;;;;;;;29.27;13.73;;;8.70;99.90;;;;;;5101513;28;20028;-73
2023/11/11 13:03:26;;;;;;;26.35;15.48;;;8.90;99.90;;;;;;5101351;28;20312;-73
2023/11/11 13:05:53;;;;;;;25.83;12.68;;;8.90;99.90;;;;;;5101491;28;20099;-74
2023/11/11 13:08:21;;;;;;;27.98;13.43;;;;;;;;;;5100395;28;20032;-75
2023/11/11 13:10:51;;;;;;;23.83;14.02;;;8.60;99.90;;;;;;5101371;28;20315;-74